sensor_id;sensor_type;location;lat;lon;timestamp;temperature;humidity
1800;DHT22;919;48.274;12.292;2022-12-18T00:02:12;-4.20;99.90
1800;DHT22;919;48.274;12.292;2022-12-18T00:04:39;-4.20;99.90
1800;DHT22;919;48.274;12.292;2022-12-18T00:07:06;-4.20;99.90
1800;DHT22;919;48.274;12.292;2022-12-18T00:09:33;-4.20;99.90
1800;DHT22;919;48.274;12.292;2022-12-18T00:12:00;-4.20;99.90
1800;DHT22;919;48.274;12.292;2022-12-18T00:14:27;-4.10;99.90
1800;DHT22;919;48.274;12.292;2022-12-18T00:16:55;-4.20;99.90
1800;DHT22;919;48.274;12.292;2022-12-18T00:19:23;-4.20;99.90
1800;DHT22;919;48.274;12.292;2022-12-18T00:21:50;-4.20;99.90
1800;DHT22;919;48.274;12.292;2022-12-18T00:24:17;-4.20;99.90
1800;DHT22;919;48.274;12.292;2022-12-18T00:26:44;-4.10;99.90
1800;DHT22;919;48.274;12.292;2022-12-18T00:29:13;-4.10;99.90
1800;DHT22;919;48.274;12.292;2022-12-18T00:31:41;-4.10;99.90
1800;DHT22;919;48.274;12.292;2022-12-18T00:34:11;-4.10;99.90
1800;DHT22;919;48.274;12.292;2022-12-18T00:36:39;-4.10;99.90
1800;DHT22;919;48.274;12.292;2022-12-18T00:39:06;-4.10;99.90
1800;DHT22;919;48.274;12.292;2022-12-18T00:41:33;-4.00;99.90
1800;DHT22;919;48.274;12.292;2022-12-18T00:44:18;-4.00;99.90
1800;DHT22;919;48.274;12.292;2022-12-18T00:46:46;-4.00;99.90
1800;DHT22;919;48.274;12.292;2022-12-18T00:49:16;-4.00;99.90
1800;DHT22;919;48.274;12.292;2022-12-18T00:51:43;-4.00;99.90
1800;DHT22;919;48.274;12.292;2022-12-18T00:54:10;-4.10;99.90
1800;DHT22;919;48.274;12.292;2022-12-18T00:56:37;-4.00;99.90
1800;DHT22;919;48.274;12.292;2022-12-18T00:59:04;-4.00;99.90
1800;DHT22;919;48.274;12.292;2022-12-18T01:01:32;-4.00;99.90
1800;DHT22;919;48.274;12.292;2022-12-18T01:04:00;-4.00;99.90
1800;DHT22;919;48.274;12.292;2022-12-18T01:06:28;-4.00;99.90
1800;DHT22;919;48.274;12.292;2022-12-18T01:08:55;-4.00;99.90
1800;DHT22;919;48.274;12.292;2022-12-18T01:11:22;-4.00;99.90
1800;DHT22;919;48.274;12.292;2022-12-18T01:13:51;-4.10;99.90
1800;DHT22;919;48.274;12.292;2022-12-18T01:16:18;-4.10;99.90
1800;DHT22;919;48.274;12.292;2022-12-18T01:18:46;-4.10;99.90
1800;DHT22;919;48.274;12.292;2022-12-18T01:21:14;-4.20;99.90
1800;DHT22;919;48.274;12.292;2022-12-18T01:23:46;-4.20;99.90
1800;DHT22;919;48.274;12.292;2022-12-18T01:26:15;-4.20;99.90
1800;DHT22;919;48.274;12.292;2022-12-18T01:28:42;-4.20;99.90
1800;DHT22;919;48.274;12.292;2022-12-18T01:31:12;-4.20;99.90
1800;DHT22;919;48.274;12.292;2022-12-18T01:33:39;-4.20;99.90
1800;DHT22;919;48.274;12.292;2022-12-18T01:36:06;-4.20;99.90
1800;DHT22;919;48.274;12.292;2022-12-18T01:38:32;-4.30;99.90
1800;DHT22;919;48.274;12.292;2022-12-18T01:41:01;-4.30;99.90
1800;DHT22;919;48.274;12.292;2022-12-18T01:43:45;-4.30;99.90
1800;DHT22;919;48.274;12.292;2022-12-18T01:46:12;-4.30;99.90
1800;DHT22;919;48.274;12.292;2022-12-18T01:48:40;-4.20;99.90
1800;DHT22;919;48.274;12.292;2022-12-18T01:51:09;-4.10;99.90
1800;DHT22;919;48.274;12.292;2022-12-18T01:53:37;-4.20;99.90
1800;DHT22;919;48.274;12.292;2022-12-18T01:56:07;-4.20;99.90
1800;DHT22;919;48.274;12.292;2022-12-18T01:58:39;-4.30;99.90
1800;DHT22;919;48.274;12.292;2022-12-18T02:01:08;-4.30;99.90
1800;DHT22;919;48.274;12.292;2022-12-18T02:03:35;-4.30;99.90
1800;DHT22;919;48.274;12.292;2022-12-18T02:06:09;-4.20;99.90
1800;DHT22;919;48.274;12.292;2022-12-18T02:08:41;-4.30;99.90
1800;DHT22;919;48.274;12.292;2022-12-18T02:11:14;-4.30;99.90
1800;DHT22;919;48.274;12.292;2022-12-18T02:13:49;-4.30;99.90
1800;DHT22;919;48.274;12.292;2022-12-18T02:16:20;-4.30;99.90
1800;DHT22;919;48.274;12.292;2022-12-18T02:18:51;-4.30;99.90
1800;DHT22;919;48.274;12.292;2022-12-18T02:21:25;-4.30;99.90
1800;DHT22;919;48.274;12.292;2022-12-18T02:23:59;-4.20;99.90
1800;DHT22;919;48.274;12.292;2022-12-18T02:26:35;-4.20;99.90
1800;DHT22;919;48.274;12.292;2022-12-18T02:29:07;-4.20;99.90
1800;DHT22;919;48.274;12.292;2022-12-18T02:31:39;-4.20;99.90
1800;DHT22;919;48.274;12.292;2022-12-18T02:34:08;-4.20;99.90
1800;DHT22;919;48.274;12.292;2022-12-18T02:36:39;-4.20;99.90
1800;DHT22;919;48.274;12.292;2022-12-18T02:39:09;-4.20;99.90
1800;DHT22;919;48.274;12.292;2022-12-18T02:41:38;-4.10;99.90
1800;DHT22;919;48.274;12.292;2022-12-18T02:44:08;-4.20;99.90
1800;DHT22;919;48.274;12.292;2022-12-18T02:46:37;-4.20;99.90
1800;DHT22;919;48.274;12.292;2022-12-18T02:49:21;-4.20;99.90
1800;DHT22;919;48.274;12.292;2022-12-18T02:51:53;-4.20;99.90
1800;DHT22;919;48.274;12.292;2022-12-18T02:54:32;-4.20;99.90
1800;DHT22;919;48.274;12.292;2022-12-18T02:57:10;-4.20;99.90
1800;DHT22;919;48.274;12.292;2022-12-18T02:59:42;-4.20;99.90
1800;DHT22;919;48.274;12.292;2022-12-18T03:02:19;-4.20;99.90
1800;DHT22;919;48.274;12.292;2022-12-18T03:04:50;-4.20;99.90
1800;DHT22;919;48.274;12.292;2022-12-18T03:07:23;-4.20;99.90
1800;DHT22;919;48.274;12.292;2022-12-18T03:09:53;-4.20;99.90
1800;DHT22;919;48.274;12.292;2022-12-18T03:12:28;-4.20;99.90
1800;DHT22;919;48.274;12.292;2022-12-18T03:14:59;-4.30;99.90
1800;DHT22;919;48.274;12.292;2022-12-18T03:17:28;-4.30;99.90
1800;DHT22;919;48.274;12.292;2022-12-18T03:19:59;-4.30;99.90
1800;DHT22;919;48.274;12.292;2022-12-18T03:22:30;-4.40;99.90
1800;DHT22;919;48.274;12.292;2022-12-18T03:25:00;-4.30;99.90
1800;DHT22;919;48.274;12.292;2022-12-18T03:27:30;-4.40;99.90
1800;DHT22;919;48.274;12.292;2022-12-18T03:30:02;-4.40;99.90
1800;DHT22;919;48.274;12.292;2022-12-18T03:32:36;-4.40;99.90
1800;DHT22;919;48.274;12.292;2022-12-18T03:35:06;-4.40;99.90
1800;DHT22;919;48.274;12.292;2022-12-18T03:37:33;-4.40;99.90
1800;DHT22;919;48.274;12.292;2022-12-18T03:40:01;-4.30;99.90
1800;DHT22;919;48.274;12.292;2022-12-18T03:42:31;-4.40;99.90
1800;DHT22;919;48.274;12.292;2022-12-18T03:45:07;-4.30;99.90
1800;DHT22;919;48.274;12.292;2022-12-18T03:47:39;-4.30;99.90
1800;DHT22;919;48.274;12.292;2022-12-18T03:50:11;-4.40;99.90
1800;DHT22;919;48.274;12.292;2022-12-18T03:52:42;-4.40;99.90
1800;DHT22;919;48.274;12.292;2022-12-18T03:55:12;-4.40;99.90
1800;DHT22;919;48.274;12.292;2022-12-18T03:57:42;-4.40;99.90
1800;DHT22;919;48.274;12.292;2022-12-18T04:00:12;-4.40;99.90
1800;DHT22;919;48.274;12.292;2022-12-18T04:02:43;-4.50;99.90
1800;DHT22;919;48.274;12.292;2022-12-18T04:05:11;-4.50;99.90
1800;DHT22;919;48.274;12.292;2022-12-18T04:07:39;-4.60;99.90
1800;DHT22;919;48.274;12.292;2022-12-18T04:10:07;-4.60;99.90
1800;DHT22;919;48.274;12.292;2022-12-18T04:12:37;-4.60;99.90
1800;DHT22;919;48.274;12.292;2022-12-18T04:15:07;-4.60;99.90
1800;DHT22;919;48.274;12.292;2022-12-18T04:17:34;-4.60;99.90
1800;DHT22;919;48.274;12.292;2022-12-18T04:20:00;-4.60;99.90
1800;DHT22;919;48.274;12.292;2022-12-18T04:22:27;-4.60;99.90
1800;DHT22;919;48.274;12.292;2022-12-18T04:24:54;-4.60;99.90
1800;DHT22;919;48.274;12.292;2022-12-18T04:27:21;-4.60;99.90
1800;DHT22;919;48.274;12.292;2022-12-18T04:29:48;-4.60;99.90
1800;DHT22;919;48.274;12.292;2022-12-18T04:32:16;-4.60;99.90
1800;DHT22;919;48.274;12.292;2022-12-18T04:34:42;-4.70;99.90
1800;DHT22;919;48.274;12.292;2022-12-18T04:37:09;-4.70;99.90
1800;DHT22;919;48.274;12.292;2022-12-18T04:39:36;-4.70;99.90
1800;DHT22;919;48.274;12.292;2022-12-18T04:42:03;-4.70;99.90
1800;DHT22;919;48.274;12.292;2022-12-18T04:44:30;-4.70;99.90
1800;DHT22;919;48.274;12.292;2022-12-18T04:46:57;-4.70;99.90
1800;DHT22;919;48.274;12.292;2022-12-18T04:49:25;-4.80;99.90
1800;DHT22;919;48.274;12.292;2022-12-18T04:51:51;-4.80;99.90
1800;DHT22;919;48.274;12.292;2022-12-18T04:54:18;-4.70;99.90
1800;DHT22;919;48.274;12.292;2022-12-18T04:56:46;-4.70;99.90
1800;DHT22;919;48.274;12.292;2022-12-18T04:59:13;-4.70;99.90
1800;DHT22;919;48.274;12.292;2022-12-18T05:01:40;-4.70;99.90
1800;DHT22;919;48.274;12.292;2022-12-18T05:04:07;-4.80;99.90
1800;DHT22;919;48.274;12.292;2022-12-18T05:06:35;-4.80;99.90
1800;DHT22;919;48.274;12.292;2022-12-18T05:09:01;-4.80;99.90
1800;DHT22;919;48.274;12.292;2022-12-18T05:11:28;-4.80;99.90
1800;DHT22;919;48.274;12.292;2022-12-18T05:13:55;-4.80;99.90
1800;DHT22;919;48.274;12.292;2022-12-18T05:16:21;-4.80;99.90
1800;DHT22;919;48.274;12.292;2022-12-18T05:18:48;-4.80;99.90
1800;DHT22;919;48.274;12.292;2022-12-18T05:21:15;-4.80;99.90
1800;DHT22;919;48.274;12.292;2022-12-18T05:23:43;-4.90;99.90
1800;DHT22;919;48.274;12.292;2022-12-18T05:26:14;-4.90;99.90
1800;DHT22;919;48.274;12.292;2022-12-18T05:28:42;-4.90;99.90
1800;DHT22;919;48.274;12.292;2022-12-18T05:31:09;-4.80;99.90
1800;DHT22;919;48.274;12.292;2022-12-18T05:33:36;-4.90;99.90
1800;DHT22;919;48.274;12.292;2022-12-18T05:36:05;-4.90;99.90
1800;DHT22;919;48.274;12.292;2022-12-18T05:38:34;-5.00;99.90
1800;DHT22;919;48.274;12.292;2022-12-18T05:41:02;-4.90;99.90
1800;DHT22;919;48.274;12.292;2022-12-18T05:43:29;-4.90;99.90
1800;DHT22;919;48.274;12.292;2022-12-18T05:45:56;-4.90;99.90
1800;DHT22;919;48.274;12.292;2022-12-18T05:48:23;-4.90;99.90
1800;DHT22;919;48.274;12.292;2022-12-18T05:50:50;-4.90;99.90
1800;DHT22;919;48.274;12.292;2022-12-18T05:53:18;-5.00;99.90
1800;DHT22;919;48.274;12.292;2022-12-18T05:55:46;-4.90;99.90
1800;DHT22;919;48.274;12.292;2022-12-18T05:58:14;-5.00;99.90
1800;DHT22;919;48.274;12.292;2022-12-18T06:00:44;-4.90;99.90
1800;DHT22;919;48.274;12.292;2022-12-18T06:03:12;-4.90;99.90
1800;DHT22;919;48.274;12.292;2022-12-18T06:05:41;-4.90;99.90
1800;DHT22;919;48.274;12.292;2022-12-18T06:08:08;-4.80;99.90
1800;DHT22;919;48.274;12.292;2022-12-18T06:10:35;-4.80;99.90
1800;DHT22;919;48.274;12.292;2022-12-18T06:13:03;-4.80;99.90
1800;DHT22;919;48.274;12.292;2022-12-18T06:15:31;-4.80;99.90
1800;DHT22;919;48.274;12.292;2022-12-18T06:17:59;-4.80;99.90
1800;DHT22;919;48.274;12.292;2022-12-18T06:20:26;-4.80;99.90
1800;DHT22;919;48.274;12.292;2022-12-18T06:22:55;-4.80;99.90
1800;DHT22;919;48.274;12.292;2022-12-18T06:25:22;-4.80;99.90
1800;DHT22;919;48.274;12.292;2022-12-18T06:27:49;-4.80;99.90
1800;DHT22;919;48.274;12.292;2022-12-18T06:30:16;-4.70;99.90
1800;DHT22;919;48.274;12.292;2022-12-18T06:32:44;-4.70;99.90
1800;DHT22;919;48.274;12.292;2022-12-18T06:35:10;-4.70;99.90
1800;DHT22;919;48.274;12.292;2022-12-18T06:37:37;-4.70;99.90
1800;DHT22;919;48.274;12.292;2022-12-18T06:40:05;-4.70;99.90
1800;DHT22;919;48.274;12.292;2022-12-18T06:42:32;-4.70;99.90
1800;DHT22;919;48.274;12.292;2022-12-18T06:44:59;-4.70;99.90
1800;DHT22;919;48.274;12.292;2022-12-18T06:50:49;-4.70;99.90
1800;DHT22;919;48.274;12.292;2022-12-18T06:53:16;-4.70;99.90
1800;DHT22;919;48.274;12.292;2022-12-18T06:55:42;-4.70;99.90
1800;DHT22;919;48.274;12.292;2022-12-18T06:58:09;-4.70;99.90
1800;DHT22;919;48.274;12.292;2022-12-18T07:00:36;-4.70;99.90
1800;DHT22;919;48.274;12.292;2022-12-18T07:03:03;-4.70;99.90
1800;DHT22;919;48.274;12.292;2022-12-18T07:05:30;-4.70;99.90
1800;DHT22;919;48.274;12.292;2022-12-18T07:07:59;-4.70;99.90
1800;DHT22;919;48.274;12.292;2022-12-18T07:10:26;-4.70;99.90
1800;DHT22;919;48.274;12.292;2022-12-18T07:12:52;-4.70;99.90
1800;DHT22;919;48.274;12.292;2022-12-18T07:15:19;-4.70;99.90
1800;DHT22;919;48.274;12.292;2022-12-18T07:17:46;-4.50;99.90
1800;DHT22;919;48.274;12.292;2022-12-18T07:20:13;-4.50;99.90
1800;DHT22;919;48.274;12.292;2022-12-18T07:22:39;-4.50;99.90
1800;DHT22;919;48.274;12.292;2022-12-18T07:25:08;-4.60;99.90
1800;DHT22;919;48.274;12.292;2022-12-18T07:27:35;-4.60;99.90
1800;DHT22;919;48.274;12.292;2022-12-18T07:30:02;-4.60;99.90
1800;DHT22;919;48.274;12.292;2022-12-18T07:32:30;-4.60;99.90
1800;DHT22;919;48.274;12.292;2022-12-18T07:34:57;-4.50;99.90
1800;DHT22;919;48.274;12.292;2022-12-18T07:37:23;-4.40;99.90
1800;DHT22;919;48.274;12.292;2022-12-18T07:39:50;-4.40;99.90
1800;DHT22;919;48.274;12.292;2022-12-18T07:42:18;-4.30;99.90
1800;DHT22;919;48.274;12.292;2022-12-18T07:44:57;-4.30;99.90
1800;DHT22;919;48.274;12.292;2022-12-18T07:47:24;-4.30;99.90
1800;DHT22;919;48.274;12.292;2022-12-18T07:49:50;-4.30;99.90
1800;DHT22;919;48.274;12.292;2022-12-18T07:52:17;-4.20;99.90
1800;DHT22;919;48.274;12.292;2022-12-18T07:54:45;-4.20;99.90
1800;DHT22;919;48.274;12.292;2022-12-18T07:57:14;-4.30;99.90
1800;DHT22;919;48.274;12.292;2022-12-18T07:59:42;-4.30;99.90
1800;DHT22;919;48.274;12.292;2022-12-18T08:02:09;-4.30;99.90
1800;DHT22;919;48.274;12.292;2022-12-18T08:04:36;-4.20;99.90
1800;DHT22;919;48.274;12.292;2022-12-18T08:07:02;-4.20;99.90
1800;DHT22;919;48.274;12.292;2022-12-18T08:09:29;-4.10;99.90
1800;DHT22;919;48.274;12.292;2022-12-18T08:11:56;-4.10;99.90
1800;DHT22;919;48.274;12.292;2022-12-18T08:14:23;-4.00;99.90
1800;DHT22;919;48.274;12.292;2022-12-18T08:16:51;-4.00;99.90
1800;DHT22;919;48.274;12.292;2022-12-18T08:19:18;-3.90;99.90
1800;DHT22;919;48.274;12.292;2022-12-18T08:21:44;-3.90;99.90
1800;DHT22;919;48.274;12.292;2022-12-18T08:24:11;-3.80;99.90
1800;DHT22;919;48.274;12.292;2022-12-18T08:26:38;-3.80;99.90
1800;DHT22;919;48.274;12.292;2022-12-18T08:29:04;-3.80;99.90
1800;DHT22;919;48.274;12.292;2022-12-18T08:31:31;-3.80;99.90
1800;DHT22;919;48.274;12.292;2022-12-18T08:34:00;-3.80;99.90
1800;DHT22;919;48.274;12.292;2022-12-18T08:36:27;-3.90;99.90
1800;DHT22;919;48.274;12.292;2022-12-18T08:38:54;-3.90;99.90
1800;DHT22;919;48.274;12.292;2022-12-18T08:41:21;-3.90;99.90
1800;DHT22;919;48.274;12.292;2022-12-18T08:43:48;-3.90;99.90
1800;DHT22;919;48.274;12.292;2022-12-18T08:46:34;-3.80;99.90
1800;DHT22;919;48.274;12.292;2022-12-18T08:49:03;-3.80;99.90
1800;DHT22;919;48.274;12.292;2022-12-18T08:51:30;-3.70;99.90
1800;DHT22;919;48.274;12.292;2022-12-18T08:53:57;-3.80;99.90
1800;DHT22;919;48.274;12.292;2022-12-18T08:56:24;-3.60;99.90
1800;DHT22;919;48.274;12.292;2022-12-18T08:58:51;-3.60;99.90
1800;DHT22;919;48.274;12.292;2022-12-18T09:01:18;-3.50;99.90
1800;DHT22;919;48.274;12.292;2022-12-18T09:03:45;-3.50;99.90
1800;DHT22;919;48.274;12.292;2022-12-18T09:06:15;-3.70;99.90
1800;DHT22;919;48.274;12.292;2022-12-18T09:08:42;-3.60;99.90
1800;DHT22;919;48.274;12.292;2022-12-18T09:11:14;-3.60;99.90
1800;DHT22;919;48.274;12.292;2022-12-18T09:13:41;-3.60;99.90
1800;DHT22;919;48.274;12.292;2022-12-18T09:16:08;-3.60;99.90
1800;DHT22;919;48.274;12.292;2022-12-18T09:18:35;-3.50;99.90
1800;DHT22;919;48.274;12.292;2022-12-18T09:21:08;-3.50;99.90
1800;DHT22;919;48.274;12.292;2022-12-18T09:23:36;-3.20;99.90
1800;DHT22;919;48.274;12.292;2022-12-18T09:26:03;-3.20;99.90
1800;DHT22;919;48.274;12.292;2022-12-18T09:28:30;-3.20;99.90
1800;DHT22;919;48.274;12.292;2022-12-18T09:30:57;-3.30;99.90
1800;DHT22;919;48.274;12.292;2022-12-18T09:33:24;-3.40;99.90
1800;DHT22;919;48.274;12.292;2022-12-18T09:35:51;-3.30;99.90
1800;DHT22;919;48.274;12.292;2022-12-18T09:38:18;-3.20;99.90
1800;DHT22;919;48.274;12.292;2022-12-18T09:40:49;-3.20;99.90
1800;DHT22;919;48.274;12.292;2022-12-18T09:43:18;-3.10;99.90
1800;DHT22;919;48.274;12.292;2022-12-18T09:45:49;-3.10;99.90
1800;DHT22;919;48.274;12.292;2022-12-18T09:48:21;-3.10;99.90
1800;DHT22;919;48.274;12.292;2022-12-18T09:50:50;-3.00;99.90
1800;DHT22;919;48.274;12.292;2022-12-18T09:53:22;-3.00;99.90
1800;DHT22;919;48.274;12.292;2022-12-18T09:55:52;-3.00;99.90
1800;DHT22;919;48.274;12.292;2022-12-18T09:58:26;-3.10;99.90
1800;DHT22;919;48.274;12.292;2022-12-18T10:00:55;-3.00;99.90
1800;DHT22;919;48.274;12.292;2022-12-18T10:03:22;-3.00;99.90
1800;DHT22;919;48.274;12.292;2022-12-18T10:05:55;-2.90;99.90
1800;DHT22;919;48.274;12.292;2022-12-18T10:08:33;-2.80;99.90
1800;DHT22;919;48.274;12.292;2022-12-18T10:11:21;-2.70;99.90
1800;DHT22;919;48.274;12.292;2022-12-18T10:13:54;-2.80;99.90
1800;DHT22;919;48.274;12.292;2022-12-18T10:16:27;-2.70;99.90
1800;DHT22;919;48.274;12.292;2022-12-18T10:19:28;-2.70;99.90
1800;DHT22;919;48.274;12.292;2022-12-18T10:22:07;-2.60;99.90
1800;DHT22;919;48.274;12.292;2022-12-18T10:24:42;-2.50;99.90
1800;DHT22;919;48.274;12.292;2022-12-18T10:27:15;-2.40;99.90
1800;DHT22;919;48.274;12.292;2022-12-18T10:29:42;-2.20;99.90
1800;DHT22;919;48.274;12.292;2022-12-18T10:32:15;-2.30;99.90
1800;DHT22;919;48.274;12.292;2022-12-18T10:34:45;-2.10;99.90
1800;DHT22;919;48.274;12.292;2022-12-18T10:37:16;-2.20;99.90
1800;DHT22;919;48.274;12.292;2022-12-18T10:39:44;-2.30;99.90
1800;DHT22;919;48.274;12.292;2022-12-18T10:42:16;-2.30;99.90
1800;DHT22;919;48.274;12.292;2022-12-18T10:44:43;-2.30;99.90
1800;DHT22;919;48.274;12.292;2022-12-18T10:47:13;-2.40;99.90
1800;DHT22;919;48.274;12.292;2022-12-18T10:49:47;-2.30;99.90
1800;DHT22;919;48.274;12.292;2022-12-18T10:52:17;-2.30;99.90
1800;DHT22;919;48.274;12.292;2022-12-18T10:54:49;-2.30;99.90
1800;DHT22;919;48.274;12.292;2022-12-18T10:57:31;-2.50;99.90
1800;DHT22;919;48.274;12.292;2022-12-18T11:00:01;-2.60;99.90
1800;DHT22;919;48.274;12.292;2022-12-18T11:02:35;-2.50;99.90
1800;DHT22;919;48.274;12.292;2022-12-18T11:05:04;-2.60;99.90
1800;DHT22;919;48.274;12.292;2022-12-18T11:07:49;-2.90;99.90
1800;DHT22;919;48.274;12.292;2022-12-18T11:10:20;-2.80;99.90
1800;DHT22;919;48.274;12.292;2022-12-18T11:12:48;-2.60;99.90
1800;DHT22;919;48.274;12.292;2022-12-18T11:15:16;-2.50;99.90
1800;DHT22;919;48.274;12.292;2022-12-18T11:17:48;-2.60;99.90
1800;DHT22;919;48.274;12.292;2022-12-18T11:20:29;-2.60;99.90
1800;DHT22;919;48.274;12.292;2022-12-18T11:22:58;-2.90;99.90
1800;DHT22;919;48.274;12.292;2022-12-18T11:25:29;-2.90;99.90
1800;DHT22;919;48.274;12.292;2022-12-18T11:27:59;-2.80;99.90
1800;DHT22;919;48.274;12.292;2022-12-18T11:30:29;-2.90;99.90
1800;DHT22;919;48.274;12.292;2022-12-18T11:32:59;-3.10;99.90
1800;DHT22;919;48.274;12.292;2022-12-18T11:35:36;-3.20;99.90
1800;DHT22;919;48.274;12.292;2022-12-18T11:38:10;-3.10;99.90
1800;DHT22;919;48.274;12.292;2022-12-18T11:40:42;-3.30;99.90
1800;DHT22;919;48.274;12.292;2022-12-18T11:43:15;-3.30;99.90
1800;DHT22;919;48.274;12.292;2022-12-18T11:45:48;-3.40;99.90
1800;DHT22;919;48.274;12.292;2022-12-18T11:48:18;-3.30;99.90
1800;DHT22;919;48.274;12.292;2022-12-18T11:50:50;-3.40;99.90
1800;DHT22;919;48.274;12.292;2022-12-18T11:53:17;-3.50;99.90
1800;DHT22;919;48.274;12.292;2022-12-18T11:55:52;-3.60;99.90
1800;DHT22;919;48.274;12.292;2022-12-18T11:58:43;-3.50;99.90
1800;DHT22;919;48.274;12.292;2022-12-18T12:01:18;-3.50;99.90
1800;DHT22;919;48.274;12.292;2022-12-18T12:04:00;-3.60;99.90
1800;DHT22;919;48.274;12.292;2022-12-18T12:06:38;-3.50;99.90
1800;DHT22;919;48.274;12.292;2022-12-18T12:09:12;-3.30;99.90
1800;DHT22;919;48.274;12.292;2022-12-18T12:11:54;-3.20;99.90
1800;DHT22;919;48.274;12.292;2022-12-18T12:14:39;-3.10;99.90
1800;DHT22;919;48.274;12.292;2022-12-18T12:17:11;-3.00;99.90
1800;DHT22;919;48.274;12.292;2022-12-18T12:19:46;-3.10;99.90
1800;DHT22;919;48.274;12.292;2022-12-18T12:22:23;-3.10;99.90
1800;DHT22;919;48.274;12.292;2022-12-18T12:25:02;-3.00;99.90
1800;DHT22;919;48.274;12.292;2022-12-18T12:27:39;-2.90;99.90
1800;DHT22;919;48.274;12.292;2022-12-18T12:30:11;-2.90;99.90
1800;DHT22;919;48.274;12.292;2022-12-18T12:32:49;-2.80;99.90
1800;DHT22;919;48.274;12.292;2022-12-18T12:35:28;-2.80;99.90
1800;DHT22;919;48.274;12.292;2022-12-18T12:38:06;-2.80;99.90
1800;DHT22;919;48.274;12.292;2022-12-18T12:40:36;-2.80;99.90
1800;DHT22;919;48.274;12.292;2022-12-18T12:43:14;-2.90;99.90
1800;DHT22;919;48.274;12.292;2022-12-18T12:45:47;-2.90;99.90
1800;DHT22;919;48.274;12.292;2022-12-18T12:48:20;-3.00;99.90
1800;DHT22;919;48.274;12.292;2022-12-18T12:50:49;-2.90;99.90
1800;DHT22;919;48.274;12.292;2022-12-18T12:53:23;-2.90;99.90
1800;DHT22;919;48.274;12.292;2022-12-18T12:55:52;-2.90;99.90
1800;DHT22;919;48.274;12.292;2022-12-18T12:58:29;-2.90;99.90
1800;DHT22;919;48.274;12.292;2022-12-18T13:01:10;-2.80;99.90
1800;DHT22;919;48.274;12.292;2022-12-18T13:03:52;-2.70;99.90
1800;DHT22;919;48.274;12.292;2022-12-18T13:06:30;-2.70;99.90
1800;DHT22;919;48.274;12.292;2022-12-18T13:09:00;-2.60;99.90
1800;DHT22;919;48.274;12.292;2022-12-18T13:11:34;-2.50;99.90
1800;DHT22;919;48.274;12.292;2022-12-18T13:14:25;-2.60;99.90
1800;DHT22;919;48.274;12.292;2022-12-18T13:17:28;-2.80;99.90
1800;DHT22;919;48.274;12.292;2022-12-18T13:20:11;-2.90;99.90
1800;DHT22;919;48.274;12.292;2022-12-18T13:22:42;-3.10;99.90
1800;DHT22;919;48.274;12.292;2022-12-18T13:25:28;-3.30;99.90
1800;DHT22;919;48.274;12.292;2022-12-18T13:28:05;-3.20;99.90
1800;DHT22;919;48.274;12.292;2022-12-18T13:30:48;-3.20;99.90
1800;DHT22;919;48.274;12.292;2022-12-18T13:33:46;-3.20;99.90
1800;DHT22;919;48.274;12.292;2022-12-18T13:36:29;-3.30;99.90
1800;DHT22;919;48.274;12.292;2022-12-18T13:42:37;-3.10;99.90
1800;DHT22;919;48.274;12.292;2022-12-18T13:45:44;-2.90;99.90
1800;DHT22;919;48.274;12.292;2022-12-18T13:48:17;-2.80;99.90
1800;DHT22;919;48.274;12.292;2022-12-18T13:50:52;-2.70;99.90
1800;DHT22;919;48.274;12.292;2022-12-18T13:53:22;-2.80;99.90
1800;DHT22;919;48.274;12.292;2022-12-18T13:55:50;-2.80;99.90
1800;DHT22;919;48.274;12.292;2022-12-18T13:58:17;-2.90;99.90
1800;DHT22;919;48.274;12.292;2022-12-18T14:00:44;-3.00;99.90
1800;DHT22;919;48.274;12.292;2022-12-18T14:03:20;-3.00;99.90
1800;DHT22;919;48.274;12.292;2022-12-18T14:05:54;-3.00;99.90
1800;DHT22;919;48.274;12.292;2022-12-18T14:08:32;-2.90;99.90
1800;DHT22;919;48.274;12.292;2022-12-18T14:11:00;-2.80;99.90
1800;DHT22;919;48.274;12.292;2022-12-18T14:13:31;-2.80;99.90
1800;DHT22;919;48.274;12.292;2022-12-18T14:16:00;-2.60;99.90
1800;DHT22;919;48.274;12.292;2022-12-18T14:18:33;-2.60;99.90
1800;DHT22;919;48.274;12.292;2022-12-18T14:21:04;-2.70;99.90
1800;DHT22;919;48.274;12.292;2022-12-18T14:23:33;-2.80;99.90
1800;DHT22;919;48.274;12.292;2022-12-18T14:26:01;-2.80;99.90
1800;DHT22;919;48.274;12.292;2022-12-18T14:28:28;-2.80;99.90
1800;DHT22;919;48.274;12.292;2022-12-18T14:30:55;-2.80;99.90
1800;DHT22;919;48.274;12.292;2022-12-18T14:33:24;-2.90;99.90
1800;DHT22;919;48.274;12.292;2022-12-18T14:35:56;-3.00;99.90
1800;DHT22;919;48.274;12.292;2022-12-18T14:38:28;-2.90;99.90
1800;DHT22;919;48.274;12.292;2022-12-18T14:40:58;-2.90;99.90
1800;DHT22;919;48.274;12.292;2022-12-18T14:43:26;-2.90;99.90
1800;DHT22;919;48.274;12.292;2022-12-18T14:45:53;-2.90;99.90
1800;DHT22;919;48.274;12.292;2022-12-18T14:48:22;-3.00;99.90
1800;DHT22;919;48.274;12.292;2022-12-18T14:50:59;-3.10;99.90
1800;DHT22;919;48.274;12.292;2022-12-18T14:53:34;-3.20;99.90
1800;DHT22;919;48.274;12.292;2022-12-18T14:56:02;-3.20;99.90
1800;DHT22;919;48.274;12.292;2022-12-18T14:58:29;-3.50;99.90
1800;DHT22;919;48.274;12.292;2022-12-18T15:00:56;-3.90;99.90
1800;DHT22;919;48.274;12.292;2022-12-18T15:03:23;-4.10;99.90
1800;DHT22;919;48.274;12.292;2022-12-18T15:05:50;-4.20;99.90
1800;DHT22;919;48.274;12.292;2022-12-18T15:08:31;-4.30;99.90
1800;DHT22;919;48.274;12.292;2022-12-18T15:11:00;-4.40;99.90
1800;DHT22;919;48.274;12.292;2022-12-18T15:13:27;-4.50;99.90
1800;DHT22;919;48.274;12.292;2022-12-18T15:15:55;-4.50;99.90
1800;DHT22;919;48.274;12.292;2022-12-18T15:18:28;-4.50;99.90
1800;DHT22;919;48.274;12.292;2022-12-18T15:21:30;-4.50;99.90
1800;DHT22;919;48.274;12.292;2022-12-18T15:23:58;-4.60;99.90
1800;DHT22;919;48.274;12.292;2022-12-18T15:26:25;-4.70;99.90
1800;DHT22;919;48.274;12.292;2022-12-18T15:28:53;-4.90;99.90
1800;DHT22;919;48.274;12.292;2022-12-18T15:31:24;-5.10;99.90
1800;DHT22;919;48.274;12.292;2022-12-18T15:34:09;-5.30;99.90
1800;DHT22;919;48.274;12.292;2022-12-18T15:36:38;-5.50;99.90
1800;DHT22;919;48.274;12.292;2022-12-18T15:39:06;-5.60;99.90
1800;DHT22;919;48.274;12.292;2022-12-18T15:41:34;-5.60;99.90
1800;DHT22;919;48.274;12.292;2022-12-18T15:44:01;-5.40;99.90
1800;DHT22;919;48.274;12.292;2022-12-18T15:46:27;-5.40;99.90
1800;DHT22;919;48.274;12.292;2022-12-18T15:48:55;-5.50;99.90
1800;DHT22;919;48.274;12.292;2022-12-18T15:51:24;-5.60;99.90
1800;DHT22;919;48.274;12.292;2022-12-18T15:53:54;-5.60;99.90
1800;DHT22;919;48.274;12.292;2022-12-18T15:56:22;-5.70;99.90
1800;DHT22;919;48.274;12.292;2022-12-18T15:59:10;-5.70;99.90
1800;DHT22;919;48.274;12.292;2022-12-18T16:01:37;-5.70;99.90
1800;DHT22;919;48.274;12.292;2022-12-18T16:04:04;-5.80;99.90
1800;DHT22;919;48.274;12.292;2022-12-18T16:06:31;-5.90;99.90
1800;DHT22;919;48.274;12.292;2022-12-18T16:08:58;-6.00;99.90
1800;DHT22;919;48.274;12.292;2022-12-18T16:11:27;-6.10;99.90
1800;DHT22;919;48.274;12.292;2022-12-18T16:14:15;-6.10;99.90
1800;DHT22;919;48.274;12.292;2022-12-18T16:16:43;-6.10;99.90
1800;DHT22;919;48.274;12.292;2022-12-18T16:19:10;-6.10;99.90
1800;DHT22;919;48.274;12.292;2022-12-18T16:21:37;-6.20;99.90
1800;DHT22;919;48.274;12.292;2022-12-18T16:24:04;-6.10;99.90
1800;DHT22;919;48.274;12.292;2022-12-18T16:26:33;-6.10;99.90
1800;DHT22;919;48.274;12.292;2022-12-18T16:29:00;-6.10;99.90
1800;DHT22;919;48.274;12.292;2022-12-18T16:31:26;-6.20;99.90